Accueil
METAR-TAF:

METAR-TAF

Aéroports :

Aéroport international de Malacca

Melaka, Malaisie

latitude: 02-16N, longitude: 102-15E, altitude: 11 m

Observation

Le bulletin a été fait il y a 1 heure et 16 minutes, à 01:00 UTC
Vent calme
Température 25°C
Humidité 89%
Pression 1011 hPa
Visibilité: 8000 m
Quelques nuages à une hauteur de 800 ft
Nuages épars à une hauteur de 2600 ft
pluie faible,

METAR: WMKM 220100Z 00000KT 8000 -RA FEW008 SCT026 25/23 Q1011

Heure: 10:16 (02:16 UTC)

Prévision

Le bulletin a été fait il y a 3 heures et 16 minutes, à 23:00 UTC
Prévision valable du 22 à 00 UTC au 23 à 00 UTC
Vent 3 kt de direction variable
Visibilité: 9000 m
Quelques nuages à une hauteur de 1700 ft, Cumulonimbus.
Temporairement
du 22 à 00 UTC au 22 à 03 UTC
Visibilité: 8000 m
Quelques nuages à une hauteur de 1000 ft
pluie faible,

TAF: WMKM 212300Z 2200/2300 VRB03KT 9000 FEW017CB TEMPO 2200/2203 8000 -RA FEW010

Observations et prévisions météorologiques de plus de 4000 aéroports (messages METAR et TAF).

Les stations disponibles sont représentées par des disques jaunes et rouges sur la carte.

Passer la souris dessus pour voir le nom de la station.

Cliquer dessus pour voir les observations et prévisions météorologiques.

Pour changer de carte: cliquez sur les boutons verts avec une croix noire pour zoomer, sur le bouton vert avec un tiret pour effectuer un zoom arrière, ou sur les flèches vertes pour les cartes adjacentes.


METAR-TAF: